Time;durP1;ratioP1;P1;durP2;ratioP2;P2;SDS_P1;SDS_P2;PMS_P1;PMS_P2;Temp;Humidity;BMP_temperature;BMP_pressure;BME280_temperature;BME280_humidity;BME280_pressure;Samples;Min_cycle;Max_cycle;Signal;HPM_P1;HPM_P2
2022/09/02 00:01:38;;;;;;;;;7.25;5.75;;;;;26.83;100.00;101620.19;6124883;23;51098;-48
2022/09/02 00:04:25;;;;;;;;;2.25;0.50;;;;;26.95;100.00;101642.28;6124705;23;51027;-46
2022/09/02 00:07:09;;;;;;;;;4.00;3.50;;;;;26.91;100.00;101636.13;6124841;23;51069;-49
2022/09/02 00:09:54;;;;;;;;;7.75;5.50;;;;;26.92;100.00;101632.44;6124647;23;51848;-50
2022/09/02 00:12:38;;;;;;;;;5.00;5.00;;;;;26.91;100.00;101636.13;6124782;23;51092;-46
2022/09/02 00:15:22;;;;;;;;;5.50;3.75;;;;;26.91;100.00;101633.41;6124455;23;51064;-49
2022/09/02 00:18:07;;;;;;;;;5.00;3.00;;;;;26.86;100.00;101633.69;6124697;23;51365;-49
2022/09/02 00:20:52;;;;;;;;;2.25;2.00;;;;;26.85;100.00;101625.59;6125711;23;51080;-48
2022/09/02 00:23:37;;;;;;;;;2.75;1.25;;;;;26.82;100.00;101614.84;6125159;23;51038;-47
2022/09/02 00:26:22;;;;;;;;;5.50;4.00;;;;;26.81;100.00;101611.25;6125241;23;50958;-48
2022/09/02 00:29:07;;;;;;;;;4.00;3.00;;;;;26.83;100.00;101613.88;6125050;23;51107;-48
2022/09/02 00:31:51;;;;;;;;;5.50;4.00;;;;;26.83;100.00;101616.59;6125025;23;51047;-51
2022/09/02 00:34:36;;;;;;;;;4.50;2.75;;;;;26.80;100.00;101612.22;6124192;23;51078;-50
2022/09/02 00:37:20;;;;;;;;;3.00;2.00;;;;;26.78;100.00;101605.94;6125533;23;51307;-51
2022/09/02 00:40:07;;;;;;;;;8.50;4.50;;;;;26.76;100.00;101606.03;6125649;23;51267;-47
2022/09/02 00:42:51;;;;;;;;;4.25;2.25;;;;;26.76;100.00;101602.38;6125306;23;51132;-48
2022/09/02 00:45:36;;;;;;;;;6.75;4.50;;;;;26.76;100.00;101599.66;6124419;23;51970;-46
2022/09/02 00:48:21;;;;;;;;;6.00;5.00;;;;;26.77;100.00;101595.97;6124336;23;51100;-48
2022/09/02 00:51:07;;;;;;;;;6.00;4.75;;;;;26.79;100.00;101598.63;6124872;23;51156;-47
2022/09/02 00:53:52;;;;;;;;;5.00;4.00;;;;;26.80;100.00;101597.66;6124531;23;51364;-48
2022/09/02 00:56:39;;;;;;;;;3.00;3.00;;;;;26.80;100.00;101597.66;6123580;23;51103;-51
2022/09/02 00:59:45;;;;;;;;;4.25;3.25;;;;;26.76;100.00;101589.63;6123400;23;51180;-50
2022/09/02 01:02:30;;;;;;;;;3.25;2.00;;;;;26.79;100.00;101594.06;6123284;23;51085;-51
2022/09/02 01:05:17;;;;;;;;;4.75;4.00;;;;;26.80;100.00;101593.09;6123780;23;51333;-50
2022/09/02 01:08:02;;;;;;;;;6.50;3.75;;;;;26.76;100.00;101589.63;6124009;23;50952;-47
2022/09/02 01:10:47;;;;;;;;;6.00;4.75;;;;;26.83;100.00;101598.34;6123486;23;51141;-48
2022/09/02 01:13:38;;;;;;;;;6.75;4.00;;;;;26.82;100.00;101596.63;6124874;23;51388;-49
2022/09/02 01:16:26;;;;;;;;;6.50;5.00;;;;;26.82;100.00;101599.34;6234701;22;51171;-47
2022/09/02 01:19:26;;;;;;;;;5.75;4.00;;;;;26.82;100.00;101599.34;6123138;23;51149;-49
2022/09/02 01:22:20;;;;;;;;;6.00;4.00;;;;;26.80;100.00;101589.47;6123401;23;50982;-47
2022/09/02 01:25:09;;;;;;;;;7.00;4.00;;;;;26.82;100.00;101593.00;6125012;23;51820;-49
2022/09/02 01:27:58;;;;;;;;;5.00;3.25;;;;;26.81;100.00;101589.41;6124306;23;51111;-49
2022/09/02 01:30:48;;;;;;;;;6.00;5.00;;;;;26.81;100.00;101588.50;6124709;23;51328;-50
2022/09/02 01:33:33;;;;;;;;;7.00;3.00;;;;;26.81;100.00;101588.50;6124568;23;51033;-46
2022/09/02 01:36:17;;;;;;;;;4.75;4.00;;;;;26.82;100.00;101579.34;6125432;23;51032;-47
2022/09/02 01:39:02;;;;;;;;;4.00;3.25;;;;;26.80;100.00;101584.00;6124158;23;51364;-48
2022/09/02 01:41:47;;;;;;;;;5.75;5.75;;;;;26.79;100.00;101587.69;6124373;23;51060;-47
2022/09/02 01:44:34;;;;;;;;;5.50;3.75;;;;;26.82;100.00;101591.16;6124611;23;51068;-48
2022/09/02 01:47:22;;;;;;;;;9.00;4.50;;;;;26.77;100.00;101579.59;6122758;23;51025;-46
2022/09/02 01:50:07;;;;;;;;;4.75;4.00;;;;;26.76;100.00;101583.28;6124725;23;51056;-48
2022/09/02 01:52:52;;;;;;;;;3.50;3.00;;;;;26.82;100.00;101593.00;6123804;23;51077;-50
2022/09/02 01:55:37;;;;;;;;;3.50;2.00;;;;;26.77;100.00;101585.03;6124707;23;51269;-50
2022/09/02 01:58:22;;;;;;;;;3.00;3.00;;;;;26.79;100.00;101583.13;6124424;23;51117;-49
2022/09/02 02:01:07;;;;;;;;;2.00;2.00;;;;;26.76;100.00;101589.63;6125010;23;51095;-46
2022/09/02 02:03:51;;;;;;;;;3.25;2.75;;;;;26.74;100.00;101579.75;6124743;23;51362;-50
2022/09/02 02:06:41;;;;;;;;;4.75;2.25;;;;;26.73;100.00;101583.44;6123939;23;50978;-49
2022/09/02 02:09:27;;;;;;;;;5.50;2.00;;;;;26.69;100.00;101588.22;6124302;23;51484;-50
2022/09/02 02:12:12;;;;;;;;;3.75;1.00;;;;;26.64;100.00;101573.97;6124222;23;51009;-47
2022/09/02 02:14:56;;;;;;;;;4.25;2.00;;;;;26.57;100.00;101556.16;6123556;23;51352;-47
2022/09/02 02:17:41;;;;;;;;;3.75;2.75;;;;;26.69;100.00;101573.69;6125021;23;51179;-48
2022/09/02 02:20:26;;;;;;;;;4.00;3.00;;;;;26.70;100.00;101564.53;6124088;23;51390;-48
2022/09/02 02:23:10;;;;;;;;;2.75;1.50;;;;;26.69;100.00;101566.38;6123403;23;50988;-48
2022/09/02 02:25:55;;;;;;;;;4.50;2.00;;;;;26.67;100.00;101562.00;6124720;23;51060;-48
2022/09/02 02:28:39;;;;;;;;;4.25;3.00;;;;;26.68;100.00;101567.34;6124568;23;51411;-49
2022/09/02 02:31:24;;;;;;;;;5.00;3.00;;;;;26.67;100.00;101562.84;6125103;23;51011;-51
2022/09/02 02:34:09;;;;;;;;;2.75;1.25;;;;;26.69;100.00;101555.47;6123752;23;51120;-47
2022/09/02 02:36:53;;;;;;;;;3.75;2.00;;;;;26.67;100.00;101556.53;6124493;23;51058;-51
2022/09/02 02:39:39;;;;;;;;;6.00;2.50;;;;;26.68;100.00;101563.75;6124287;23;51396;-50
2022/09/02 02:42:24;;;;;;;;;4.75;2.25;;;;;26.67;100.00;101564.72;6124000;23;51075;-48
2022/09/02 02:45:11;;;;;;;;;5.00;2.25;;;;;26.64;100.00;101573.97;6124421;23;51193;-49
2022/09/02 02:47:55;;;;;;;;;6.25;2.50;;;;;26.68;100.00;101574.66;6124095;23;51322;-48
2022/09/02 02:50:40;;;;;;;;;4.75;3.00;;;;;26.68;100.00;101580.13;6124884;23;50984;-48
2022/09/02 02:53:28;;;;;;;;;5.75;2.75;;;;;26.68;100.00;101582.84;6124096;23;51483;-48
2022/09/02 02:56:13;;;;;;;;;3.50;2.00;;;;;26.68;100.00;101591.91;6123850;23;51052;-47
2022/09/02 02:59:00;;;;;;;;;7.75;3.25;;;;;26.70;100.00;101592.72;6124260;23;51090;-48
2022/09/02 03:01:44;;;;;;;;;5.00;3.50;;;;;26.70;100.00;101587.25;6124173;23;51004;-47
2022/09/02 03:04:29;;;;;;;;;10.75;3.00;;;;;26.72;100.00;101590.78;6123878;23;51320;-47
2022/09/02 03:07:14;;;;;;;;;7.00;3.00;;;;;26.73;100.00;101595.25;6124103;23;51048;-47
2022/09/02 03:09:58;;;;;;;;;2.25;2.25;;;;;26.74;100.00;101586.13;6124969;23;51240;-49
2022/09/02 03:12:46;;;;;;;;;4.25;3.25;;;;;26.74;100.00;101588.84;6123293;23;51164;-46
2022/09/02 03:15:31;;;;;;;;;3.75;2.00;;;;;26.74;100.00;101594.31;6123988;23;51159;-48
2022/09/02 03:18:15;;;;;;;;;5.75;3.00;;;;;26.74;100.00;101597.03;6124262;23;51101;-48
2022/09/02 03:21:00;;;;;;;;;3.25;3.00;;;;;26.64;100.00;101582.16;6123805;23;51067;-47
2022/09/02 03:23:45;;;;;;;;;4.00;3.00;;;;;26.73;100.00;101597.09;6123428;23;51055;-48
2022/09/02 03:26:30;;;;;;;;;8.25;3.75;;;;;26.75;100.00;101600.63;6123917;23;51083;-51
2022/09/02 03:29:14;;;;;;;;;5.25;3.00;;;;;26.76;100.00;101603.28;6123716;23;51101;-47
2022/09/02 03:31:59;;;;;;;;;3.50;3.50;;;;;26.74;100.00;101607.06;6123976;23;51088;-48
2022/09/02 03:34:44;;;;;;;;;8.25;5.00;;;;;26.76;100.00;101600.56;6123420;23;51010;-47
2022/09/02 03:37:29;;;;;;;;;9.75;5.00;;;;;26.75;100.00;101607.00;6123653;23;51592;-48
2022/09/02 03:40:19;;;;;;;;;3.50;3.25;;;;;26.77;100.00;101606.88;6124436;23;51113;-50
2022/09/02 03:43:03;;;;;;;;;6.50;5.00;;;;;26.71;100.00;101602.66;6124014;23;51550;-46
2022/09/02 03:45:48;;;;;;;;;4.50;4.50;;;;;26.79;100.00;101613.19;6123334;23;51478;-49
2022/09/02 03:48:32;;;;;;;;;5.00;4.00;;;;;26.79;100.00;101612.28;6123440;23;51048;-49
2022/09/02 03:51:19;;;;;;;;;8.00;5.00;;;;;26.81;100.00;101613.06;6124751;23;51069;-49
2022/09/02 03:54:05;;;;;;;;;7.00;5.00;;;;;26.76;100.00;101606.03;6124071;23;51095;-48
2022/09/02 03:56:50;;;;;;;;;5.75;3.25;;;;;26.81;100.00;101610.34;6123852;23;51085;-47
2022/09/02 03:59:35;;;;;;;;;5.50;5.50;;;;;26.79;100.00;101617.72;6123862;23;51269;-47
2022/09/02 04:02:19;;;;;;;;;6.00;4.25;;;;;26.73;100.00;101617.09;6122843;23;51150;-50
2022/09/02 04:05:04;;;;;;;;;7.00;5.50;;;;;26.75;100.00;101620.63;6123868;23;51007;-50
2022/09/02 04:07:52;;;;;;;;;7.75;4.25;;;;;26.77;100.00;101623.25;6123007;23;50957;-48
2022/09/02 04:10:37;;;;;;;;;5.00;3.00;;;;;26.78;100.00;101630.53;6124597;23;51453;-48
2022/09/02 04:13:21;;;;;;;;;8.25;5.25;;;;;26.80;100.00;101644.06;6124474;23;51039;-47
2022/09/02 04:16:15;;;;;;;;;11.75;6.00;;;;;26.73;100.00;101632.59;6125844;23;51046;-51
2022/09/02 04:19:00;;;;;;;;;7.75;4.00;;;;;26.81;100.00;101648.56;6124225;23;51132;-51
2022/09/02 04:21:45;;;;;;;;;10.00;6.00;;;;;26.78;100.00;101640.53;6124219;23;50977;-49
2022/09/02 04:24:30;;;;;;;;;9.50;7.00;;;;;26.82;100.00;101633.94;6124799;23;51318;-49
2022/09/02 04:27:14;;;;;;;;;12.75;11.25;;;;;26.78;100.00;101640.53;6124638;23;51060;-48
2022/09/02 04:29:59;;;;;;;;;9.75;7.25;;;;;26.78;100.00;101643.28;6125512;23;51199;-48
2022/09/02 04:32:44;;;;;;;;;13.00;10.25;;;;;26.80;100.00;101649.53;6124805;23;52240;-48
2022/09/02 04:35:28;;;;;;;;;12.25;7.00;;;;;26.77;100.00;101639.66;6124447;23;51465;-48
2022/09/02 04:38:13;;;;;;;;;13.50;9.75;;;;;26.78;100.00;101652.38;6124667;23;51120;-50
2022/09/02 04:40:57;;;;;;;;;8.25;6.50;;;;;26.72;100.00;101636.31;6124911;23;50961;-47
2022/09/02 04:43:42;;;;;;;;;7.25;6.00;;;;;26.75;100.00;101647.94;6125008;23;51139;-48
2022/09/02 04:46:26;;;;;;;;;10.25;6.75;;;;;26.66;100.00;101634.81;6124372;23;51111;-48
2022/09/02 04:49:11;;;;;;;;;4.25;4.25;;;;;26.71;100.00;101640.88;6124737;23;51356;-50
2022/09/02 04:51:55;;;;;;;;;8.00;5.50;;;;;26.71;100.00;101643.59;6124529;23;51032;-49
2022/09/02 04:54:39;;;;;;;;;7.00;6.00;;;;;26.68;100.00;101640.19;6125624;23;50994;-49
2022/09/02 04:57:25;;;;;;;;;8.50;5.00;;;;;26.69;100.00;101637.34;6124049;23;51103;-50
2022/09/02 05:00:10;;;;;;;;;9.50;6.50;;;;;26.68;100.00;101637.44;6124181;23;50984;-48
2022/09/02 05:02:54;;;;;;;;;11.00;6.00;;;;;26.69;100.00;101642.81;6123657;23;51098;-50
2022/09/02 05:05:39;;;;;;;;;10.50;7.00;;;;;26.68;100.00;101648.38;6125244;23;51071;-48
2022/09/02 05:08:23;;;;;;;;;12.25;6.25;;;;;26.57;100.00;101630.75;6124104;23;51453;-49
2022/09/02 05:11:12;;;;;;;;;6.00;5.25;;;;;26.67;100.00;101650.19;6124858;23;51090;-47
2022/09/02 05:13:59;;;;;;;;;6.00;4.50;;;;;26.64;100.00;101627.66;6123968;23;51319;-47
2022/09/02 05:16:44;;;;;;;;;6.00;5.00;;;;;26.65;100.00;101637.63;6122801;23;51140;-50
2022/09/02 05:19:29;;;;;;;;;9.50;6.00;;;;;26.65;100.00;101646.69;6124650;23;51387;-50
2022/09/02 05:22:14;;;;;;;;;6.50;5.50;;;;;26.61;100.00;101635.06;6123701;23;51455;-49
2022/09/02 05:24:59;;;;;;;;;8.50;6.00;;;;;26.59;100.00;101642.47;6124869;23;51000;-50
2022/09/02 05:27:43;;;;;;;;;5.50;5.00;;;;;26.57;100.00;101632.59;6123962;23;50992;-47
2022/09/02 05:30:28;;;;;;;;;7.00;6.75;;;;;26.55;100.00;101640.00;6124569;23;51142;-48
2022/09/02 05:33:14;;;;;;;;;6.50;4.00;;;;;26.54;100.00;101639.13;6124325;23;51446;-48
2022/09/02 05:35:59;;;;;;;;;8.00;8.00;;;;;26.58;100.00;101645.28;6124560;23;51094;-50
2022/09/02 05:38:44;;;;;;;;;10.25;9.00;;;;;26.58;100.00;101643.44;6125202;23;50968;-51
2022/09/02 05:41:29;;;;;;;;;4.00;4.00;;;;;26.47;100.00;101632.25;6124420;23;51026;-47
2022/09/02 05:44:13;;;;;;;;;11.00;6.00;;;;;26.56;100.00;101653.56;6124256;23;51132;-47
2022/09/02 05:46:57;;;;;;;;;7.75;4.75;;;;;26.54;100.00;101665.53;6124491;23;50995;-50
2022/09/02 05:49:42;;;;;;;;;9.75;6.00;;;;;26.57;100.00;101673.53;6123875;23;51679;-49
2022/09/02 05:52:27;;;;;;;;;8.00;4.75;;;;;26.54;100.00;101660.09;6123696;23;51065;-47
2022/09/02 05:55:12;;;;;;;;;8.00;6.00;;;;;26.65;100.00;101665.81;6124472;23;51115;-51
2022/09/02 05:57:56;;;;;;;;;11.25;7.00;;;;;26.65;100.00;101662.19;6124131;23;51070;-50
2022/09/02 06:00:41;;;;;;;;;13.00;10.00;;;;;26.59;100.00;101657.97;6124729;23;51222;-47
2022/09/02 06:03:25;;;;;;;;;9.50;7.25;;;;;26.67;100.00;101676.63;6124055;23;51427;-47
2022/09/02 06:06:10;;;;;;;;;12.25;9.00;;;;;26.69;100.00;101675.56;6124496;23;51168;-50
2022/09/02 06:08:54;;;;;;;;;20.00;12.00;;;;;26.71;100.00;101678.22;6125326;23;50992;-50
2022/09/02 06:11:44;;;;;;;;;10.75;8.00;;;;;26.71;100.00;101680.97;6123912;23;51399;-51
2022/09/02 06:14:29;;;;;;;;;5.25;5.25;;;;;26.65;100.00;101678.56;6124073;23;51385;-49
2022/09/02 06:17:14;;;;;;;;;8.50;7.00;;;;;26.67;100.00;101679.38;6124078;23;51043;-47
2022/09/02 06:19:58;;;;;;;;;8.00;6.25;;;;;26.70;100.00;101682.78;6125223;23;51098;-51
2022/09/02 06:22:43;;;;;;;;;5.00;5.00;;;;;26.73;100.00;101687.19;6124074;23;51099;-51
2022/09/02 06:25:27;;;;;;;;;9.75;7.75;;;;;26.71;100.00;101686.41;6124037;23;51109;-49
2022/09/02 06:28:13;;;;;;;;;9.75;7.00;;;;;26.74;100.00;101688.94;6124972;23;51111;-48
2022/09/02 06:30:57;;;;;;;;;8.75;7.00;;;;;26.84;100.00;101705.75;6124787;23;51063;-48
2022/09/02 06:33:43;;;;;;;;;8.75;8.00;;;;;26.90;100.00;101705.38;6123800;23;51009;-49
2022/09/02 06:36:29;;;;;;;;;9.75;7.75;;;;;26.94;100.00;101709.69;6123501;23;51379;-49
2022/09/02 06:39:16;;;;;;;;;9.75;8.00;;;;;26.98;100.00;101715.84;6124251;23;51390;-50
2022/09/02 06:42:00;;;;;;;;;15.25;12.25;;;;;27.02;100.00;101715.59;6123559;23;51128;-49
2022/09/02 06:44:44;;;;;;;;;11.00;8.00;;;;;27.11;100.00;101718.75;6124436;23;51100;-48
2022/09/02 06:47:30;;;;;;;;;12.00;10.75;;;;;27.10;100.00;101704.22;6124139;23;51103;-49
2022/09/02 06:50:15;;;;;;;;;13.75;10.25;;;;;27.22;100.00;101719.91;6124733;23;51045;-47
2022/09/02 06:53:00;;;;;;;;;12.00;9.75;;;;;27.25;100.00;101727.03;6123438;23;51462;-47
2022/09/02 06:55:45;;;;;;;;;11.75;7.25;;;;;27.29;100.00;101725.00;6123322;23;51118;-48
2022/09/02 06:58:30;;;;;;;;;7.00;5.75;;;;;27.37;100.00;101725.41;6124125;23;51141;-48
2022/09/02 07:01:23;;;;;;;;;9.25;6.00;;;;;27.49;100.00;101727.47;6124269;23;51371;-48
2022/09/02 07:07:12;;;;;;;;;12.50;7.00;;;;;27.79;100.00;101728.44;6124365;23;51085;-49
2022/09/02 07:09:56;;;;;;;;;11.75;8.50;;;;;27.87;100.00;101723.38;6123832;23;51068;-48
2022/09/02 07:12:41;;;;;;;;;9.75;6.00;;;;;28.12;100.00;101736.44;6123880;23;51061;-47
2022/09/02 07:15:25;;;;;;;;;45.00;33.75;;;;;28.30;100.00;101742.63;6123845;23;51041;-47
2022/09/02 07:18:09;;;;;;;;;15.75;11.00;;;;;28.46;100.00;101741.66;6124247;23;51346;-48
2022/09/02 07:20:54;;;;;;;;;7.50;7.50;;;;;28.70;100.00;101743.78;6123577;23;51080;-48
2022/09/02 07:23:39;;;;;;;;;10.25;7.75;;;;;28.89;100.00;101733.41;6123704;23;51034;-47
2022/09/02 07:26:24;;;;;;;;;13.75;12.25;;;;;29.10;100.00;101735.75;6123785;23;51193;-46
2022/09/02 07:29:10;;;;;;;;;20.75;15.00;;;;;29.29;100.00;101743.59;6124377;23;51417;-47
2022/09/02 07:31:54;;;;;;;;;10.50;9.25;;;;;29.52;100.00;101739.31;6123818;23;50996;-48
2022/09/02 07:34:39;;;;;;;;;10.00;6.75;;;;;29.75;100.00;101746.94;6123851;23;50973;-48
2022/09/02 07:37:24;;;;;;;;;9.00;8.00;;;;;29.94;100.00;101747.44;6123778;23;51006;-49
2022/09/02 07:40:10;;;;;;;;;10.50;8.00;;;;;30.28;100.00;101755.16;6123501;23;51074;-49
2022/09/02 07:42:54;;;;;;;;;8.50;5.75;;;;;31.44;100.00;101759.53;6121797;23;51066;-47
2022/09/02 07:45:42;;;;;;;;;8.50;6.25;;;;;33.65;100.00;101754.72;6124642;23;51147;-48
2022/09/02 07:48:28;;;;;;;;;6.75;3.50;;;;;35.44;100.00;101728.66;6125242;23;51377;-48
2022/09/02 07:51:12;;;;;;;;;6.75;4.50;;;;;36.35;100.00;101717.13;6123636;23;51375;-48
2022/09/02 07:53:57;;;;;;;;;8.00;5.75;;;;;35.93;100.00;101742.47;6125284;23;51311;-48
2022/09/02 07:56:42;;;;;;;;;8.00;5.00;;;;;35.52;100.00;101743.50;6124816;23;51238;-48
2022/09/02 07:59:27;;;;;;;;;7.50;5.00;;;;;35.21;100.00;101745.50;6123583;23;51090;-50
2022/09/02 08:02:11;;;;;;;;;5.50;4.25;;;;;35.19;100.00;101765.00;6123522;23;51423;-48
2022/09/02 08:04:55;;;;;;;;;11.00;8.00;;;;;34.98;100.00;101758.69;6124849;23;51104;-49
2022/09/02 08:07:40;;;;;;;;;5.75;5.00;;;;;34.60;100.00;101762.03;6125436;23;51299;-50
2022/09/02 08:10:28;;;;;;;;;6.50;2.00;;;;;34.57;100.00;101762.31;6124278;23;51040;-48
2022/09/02 08:13:13;;;;;;;;;8.00;6.75;;;;;34.64;100.00;101773.69;6122705;23;51041;-48
2022/09/02 08:15:59;;;;;;;;;8.50;4.75;;;;;34.61;100.00;101765.66;6124807;23;51067;-49
2022/09/02 08:18:44;;;;;;;;;5.50;5.25;;;;;34.66;100.00;101759.75;6125186;23;50961;-49
2022/09/02 08:21:28;;;;;;;;;6.25;4.25;;;;;34.55;100.00;101746.88;6124868;23;51384;-48
2022/09/02 08:24:13;;;;;;;;;5.75;5.00;;;;;34.65;100.00;101767.16;6124909;23;50937;-48
2022/09/02 08:26:59;;;;;;;;;7.00;5.50;;;;;34.76;100.00;101767.03;6124599;23;51315;-48
2022/09/02 08:29:43;;;;;;;;;7.50;6.75;;;;;34.84;100.00;101765.47;6124309;23;51027;-47
2022/09/02 08:32:29;;;;;;;;;7.50;4.50;;;;;34.87;100.00;101767.94;6125276;23;51431;-49
2022/09/02 08:35:14;;;;;;;;;5.50;3.75;;;;;34.71;100.00;101760.19;6124206;23;51032;-48
2022/09/02 08:37:59;;;;;;;;;4.50;4.00;;;;;34.42;100.00;101747.13;6124863;23;51387;-48
2022/09/02 08:40:44;;;;;;;;;8.25;3.75;;;;;34.23;100.00;101753.38;6118619;23;51476;-49
2022/09/02 08:43:39;;;;;;;;;6.50;4.25;;;;;34.29;100.00;101739.91;6123945;23;51029;-51
2022/09/02 08:46:25;;;;;;;;;4.50;3.50;;;;;34.00;100.00;101756.28;6122651;23;51143;-51
2022/09/02 08:49:26;;;;;;;;;4.75;2.75;;;;;33.21;100.00;101755.59;6124096;23;51057;-48
2022/09/02 08:52:17;;;;;;;;;4.50;1.50;;;;;32.80;100.00;101757.19;6122825;23;51472;-51
2022/09/02 08:55:02;;;;;;;;;5.25;4.25;;;;;32.67;100.00;101762.78;6124343;23;51039;-51
2022/09/02 08:57:48;;;;;;;;;4.00;3.75;;;;;32.68;100.00;101755.41;6123716;23;51261;-49
2022/09/02 09:00:38;;;;;;;;;9.25;6.50;;;;;32.74;100.00;101754.88;6124099;23;51005;-48
2022/09/02 09:03:56;;;;;;;;;8.25;6.00;;;;;32.68;100.00;101745.22;6124583;23;51350;-49
2022/09/02 09:07:05;;;;;;;;;8.25;6.50;;;;;32.51;100.00;101745.75;6123579;23;51043;-49
2022/09/02 09:10:07;;;;;;;;;10.25;8.75;;;;;32.43;100.00;101749.13;6122913;23;51050;-48
2022/09/02 09:13:32;;;;;;;;;8.25;5.00;;;;;32.50;100.00;101742.09;6123134;23;51080;-50
2022/09/02 09:16:28;;;;;;;;;5.75;4.50;;;;;32.36;100.00;101737.72;6122632;23;51324;-47
2022/09/02 09:19:14;;;;;;;;;5.25;5.00;;;;;32.25;100.00;101737.72;6122671;22;51355;-51
2022/09/02 09:22:02;;;;;;;;;7.00;6.25;;;;;32.08;100.00;101744.53;6123613;23;51060;-48
2022/09/02 09:24:48;;;;;;;;;3.25;3.00;;;;;32.02;100.00;101737.63;6124070;23;51111;-48
2022/09/02 09:27:33;;;;;;;;;9.25;6.50;;;;;32.04;100.00;101752.16;6123578;23;50978;-49
2022/09/02 09:30:17;;;;;;;;;7.25;4.00;;;;;32.10;100.00;101739.78;6124143;23;51086;-51
2022/09/02 09:33:03;;;;;;;;;7.00;4.25;;;;;32.19;100.00;101746.44;6123701;23;51341;-50
2022/09/02 09:35:51;;;;;;;;;6.00;4.25;;;;;32.10;100.00;101742.53;6123756;23;51364;-51
2022/09/02 09:38:37;;;;;;;;;6.75;4.25;;;;;32.12;100.00;101740.56;6122555;23;51127;-48
2022/09/02 09:41:23;;;;;;;;;6.00;4.75;;;;;32.08;100.00;101742.69;6124385;23;52367;-47
2022/09/02 09:44:08;;;;;;;;;8.50;5.75;;;;;32.20;100.00;101732.53;6122210;23;51035;-48
2022/09/02 09:47:05;;;;;;;;;8.50;6.50;;;;;32.17;100.00;101737.44;6124158;23;51111;-49
2022/09/02 09:50:09;;;;;;;;;10.25;7.75;;;;;32.29;100.00;101741.97;6124540;23;51252;-50
2022/09/02 09:52:53;;;;;;;;;6.50;4.75;;;;;32.28;100.00;101727.31;6123693;23;51003;-47
2022/09/02 09:55:49;;;;;;;;;8.75;8.75;;;;;32.11;100.00;101741.53;6124197;23;50972;-47
2022/09/02 09:58:39;;;;;;;;;9.50;6.75;;;;;32.05;100.00;101729.16;6123899;23;51454;-50
2022/09/02 10:01:30;;;;;;;;;8.75;6.00;;;;;32.13;100.00;101726.66;6124120;23;51403;-49
2022/09/02 10:04:33;;;;;;;;;8.50;8.00;;;;;32.24;100.00;101723.09;6123063;23;50976;-48
2022/09/02 10:07:39;;;;;;;;;8.50;7.00;;;;;32.25;100.00;101722.09;6123672;23;51071;-48
2022/09/02 10:10:25;;;;;;;;;9.00;7.25;;;;;32.34;100.00;101717.69;6123559;23;51071;-49
2022/09/02 10:13:21;;;;;;;;;6.50;5.50;;;;;32.27;100.00;101713.69;6122904;23;51178;-49
2022/09/02 10:16:36;;;;;;;;;9.50;6.50;;;;;32.17;100.00;101712.66;6123258;23;51083;-48
2022/09/02 10:19:44;;;;;;;;;10.25;6.50;;;;;32.20;100.00;101712.41;6124465;23;51080;-52
2022/09/02 10:22:28;;;;;;;;;11.00;8.50;;;;;32.32;100.00;101710.56;6123165;23;51112;-58
2022/09/02 10:25:39;;;;;;;;;8.25;5.00;;;;;32.46;100.00;101696.56;6123495;23;51492;-57
2022/09/02 10:28:47;;;;;;;;;6.00;4.00;;;;;32.46;100.00;101699.31;6123273;23;51136;-57
2022/09/02 10:32:09;;;;;;;;;8.25;6.25;;;;;32.53;100.00;101694.16;6123317;23;51167;-57
2022/09/02 10:35:31;;;;;;;;;13.00;10.25;;;;;32.74;100.00;101702.53;6122815;23;51116;-58
2022/09/02 10:38:36;;;;;;;;;21.50;19.25;;;;;33.03;100.00;101704.75;6185366;23;51424;-56
2022/09/02 10:41:41;;;;;;;;;10.25;8.00;;;;;33.25;100.00;101703.81;6122675;23;51113;-57
2022/09/02 10:44:44;;;;;;;;;7.00;6.00;;;;;33.32;100.00;101704.16;6122320;23;51144;-57
2022/09/02 10:47:36;;;;;;;;;7.50;7.50;;;;;33.45;100.00;101699.34;6123274;23;51148;-57
2022/09/02 10:50:43;;;;;;;;;7.25;5.00;;;;;33.49;100.00;101692.56;6124325;23;51013;-58
2022/09/02 10:53:48;;;;;;;;;6.75;5.00;;;;;33.31;100.00;101695.00;6123574;23;51088;-59
2022/09/02 10:56:44;;;;;;;;;8.00;4.75;;;;;33.02;100.00;101687.34;6123582;23;51358;-57
2022/09/02 10:59:58;;;;;;;;;4.25;4.25;;;;;33.05;100.00;101698.09;6101850;23;51202;-57
2022/09/02 11:03:16;;;;;;;;;5.00;4.25;;;;;33.18;100.00;101689.66;6123496;23;51046;-57
2022/09/02 11:06:08;;;;;;;;;7.75;4.25;;;;;33.12;100.00;101694.81;6123337;23;51369;-57
2022/09/02 11:08:58;;;;;;;;;9.75;7.25;;;;;33.28;100.00;101686.97;6122702;23;51009;-58
2022/09/02 11:12:11;;;;;;;;;5.00;5.00;;;;;33.43;100.00;101676.56;6124545;23;51371;-57
2022/09/02 11:15:17;;;;;;;;;5.25;5.00;;;;;33.18;100.00;101664.84;6124117;23;51036;-58
2022/09/02 11:18:12;;;;;;;;;5.25;4.25;;;;;33.06;100.00;101665.88;6123964;23;51071;-57
2022/09/02 11:21:24;;;;;;;;;4.75;4.25;;;;;33.10;100.00;101663.75;6125490;23;51143;-57
2022/09/02 11:24:14;;;;;;;;;4.25;3.25;;;;;33.20;100.00;101660.09;6125477;23;51541;-56
2022/09/02 11:27:14;;;;;;;;;11.25;9.50;;;;;33.12;100.00;101647.94;6122395;23;51087;-58
2022/09/02 11:30:08;;;;;;;;;5.25;5.00;;;;;33.28;100.00;101658.53;6124158;22;51031;-56
2022/09/02 11:33:09;;;;;;;;;7.00;6.50;;;;;33.49;100.00;101651.19;6125608;23;51082;-53
2022/09/02 11:35:54;;;;;;;;;8.25;6.00;;;;;33.68;100.00;101646.81;6125212;23;51110;-56
2022/09/02 11:39:09;;;;;;;;;2.00;1.75;;;;;33.48;100.00;101630.13;6125290;23;51284;-53
2022/09/02 11:42:00;;;;;;;;;8.00;4.50;;;;;33.43;100.00;101634.28;6124340;23;51044;-56
2022/09/02 11:45:29;;;;;;;;;5.25;3.75;;;;;33.46;100.00;101623.84;6124904;23;51008;-58
2022/09/02 11:48:49;;;;;;;;;5.25;2.75;;;;;33.37;100.00;101610.88;6140417;23;50961;-58
2022/09/02 11:51:54;;;;;;;;;6.25;2.00;;;;;33.11;100.00;101611.25;6125100;23;51067;-55
2022/09/02 11:54:41;;;;;;;;;4.00;3.00;;;;;32.96;100.00;101613.44;6124536;23;51613;-56
2022/09/02 11:57:26;;;;;;;;;3.25;3.25;;;;;32.89;100.00;101607.56;6124094;23;51031;-56
2022/09/02 12:00:26;;;;;;;;;3.25;3.25;;;;;32.74;100.00;101597.81;6125301;23;51261;-58
2022/09/02 12:03:14;;;;;;;;;10.00;5.75;;;;;32.73;100.00;101593.31;6123143;23;51142;-58
2022/09/02 12:06:07;;;;;;;;;5.25;4.00;;;;;32.76;100.00;101584.78;6124960;23;51315;-55
2022/09/02 12:08:52;;;;;;;;;6.25;4.50;;;;;32.82;100.00;101567.75;6123757;23;51065;-57
2022/09/02 12:11:47;;;;;;;;;6.25;3.75;;;;;32.85;100.00;101569.38;6125575;23;51357;-58
2022/09/02 12:14:33;;;;;;;;;5.00;5.00;;;;;32.74;100.00;101559.22;6123586;23;51500;-57
2022/09/02 12:17:46;;;;;;;;;3.25;3.25;;;;;32.55;100.00;101563.56;6123407;23;51251;-57
2022/09/02 12:20:41;;;;;;;;;4.50;3.00;;;;;32.46;100.00;101556.06;6123783;23;51028;-55
2022/09/02 12:23:48;;;;;;;;;6.00;5.00;;;;;32.40;100.00;101554.72;6124300;23;50966;-57
2022/09/02 12:26:35;;;;;;;;;2.50;2.50;;;;;32.28;100.00;101550.22;6123412;22;51167;-57
2022/09/02 12:29:23;;;;;;;;;4.00;3.25;;;;;32.19;100.00;101553.72;6122132;23;51067;-54
2022/09/02 12:32:07;;;;;;;;;4.00;3.00;;;;;31.90;100.00;101529.50;6124265;23;51724;-58
2022/09/02 14:32:35;;;;;;;;;2.00;2.00;;;;;31.33;100.00;101406.53;4329743;32;51097;-48
2022/09/02 14:35:22;;;;;;;;;1.75;1.75;;;;;31.18;100.00;101416.06;5082733;27;51132;-47
2022/09/02 14:38:06;;;;;;;;;1.00;0.00;;;;;31.03;100.00;101404.41;5095699;27;51395;-49
2022/09/02 14:40:59;;;;;;;;;4.75;4.75;;;;;30.97;100.00;101400.28;5077555;28;51107;-49
2022/09/02 14:44:07;;;;;;;;;3.25;2.25;;;;;30.98;100.00;101413.00;5079852;27;51111;-50
2022/09/02 14:46:54;;;;;;;;;1.75;1.75;;;;;31.01;100.00;101411.88;5080686;27;51035;-48
2022/09/02 14:52:15;;;;;;;;;1.50;1.50;;;;;30.83;100.00;101426.09;4327029;32;51092;-48
2022/09/02 14:55:01;;;;;;;;;1.75;1.75;;;;;30.79;100.00;101427.34;5074516;27;51074;-45
2022/09/02 14:57:46;;;;;;;;;3.50;2.00;;;;;30.82;100.00;101428.94;5077461;27;51536;-46